Terminal Aerodrome Forecast
Issued by NWS

Home | Current Version | Previous Version | Text Only | Print | Product List | Glossary On
Versions: 1 2 3 4 5 6 7 8 9 10 11 12 13 14 15 16 17 18 19 20 21 22 23 24 25 26
637
FTUS41 KOKX 052335
TAFSWF
TAF
KSWF 052335Z 0600/0706 29010KT P6SM SCT040
     FM060200 VRB05KT P6SM SKC
     FM061400 07005KT P6SM BKN250
     FM061800 12005KT P6SM SCT050 BKN200
     FM062300 09006KT 5SM -RASN BKN050 BKN100
     FM070100 07005KT 2SM -SN BR SCT015 OVC030
     FM070300 06005KT 1SM -SN BR SCT007 OVC012
      AMD NOT SKED=

USA.gov is the U.S. government's official web portal to all federal, state and local government web resources and services.